createdAt,value
2023-01-17T00:00:29.339Z,2.90
2023-01-17T00:01:31.322Z,2.96
2023-01-17T00:02:33.463Z,2.82
2023-01-17T00:03:36.683Z,2.91
2023-01-17T00:04:38.954Z,2.91
2023-01-17T00:05:41.119Z,2.94
2023-01-17T00:06:42.852Z,2.70
2023-01-17T00:07:44.962Z,3.05
2023-01-17T00:08:47.157Z,2.77
2023-01-17T00:09:49.363Z,2.79
2023-01-17T00:10:51.264Z,2.96
2023-01-17T00:11:53.084Z,2.93
2023-01-17T00:13:00.833Z,2.61
2023-01-17T00:14:02.849Z,2.97
2023-01-17T00:15:05.910Z,2.93
2023-01-17T00:16:08.065Z,2.91
2023-01-17T00:17:09.907Z,2.52
2023-01-17T00:18:11.769Z,2.91
2023-01-17T00:19:13.628Z,2.93
2023-01-17T00:20:21.767Z,2.68
2023-01-17T00:21:23.683Z,2.83
2023-01-17T00:22:28.360Z,2.99
2023-01-17T00:23:30.136Z,2.78
2023-01-17T00:24:32.211Z,3.01
2023-01-17T00:25:39.179Z,2.83
2023-01-17T00:26:41.064Z,2.62
2023-01-17T00:27:42.852Z,2.77
2023-01-17T00:28:45.825Z,1.02
2023-01-17T00:29:47.918Z,2.94
2023-01-17T00:30:49.946Z,2.76
2023-01-17T00:31:51.888Z,2.88
2023-01-17T00:32:53.883Z,2.87
2023-01-17T00:33:55.745Z,3.02
2023-01-17T00:34:57.764Z,2.93
2023-01-17T00:36:01.010Z,3.03
2023-01-17T00:37:02.900Z,3.01
2023-01-17T00:38:09.242Z,2.08
2023-01-17T00:39:11.117Z,2.79
2023-01-17T00:40:13.184Z,2.99
2023-01-17T00:41:15.939Z,2.85
2023-01-17T00:42:18.576Z,2.47
2023-01-17T00:43:23.243Z,2.92
2023-01-17T00:44:25.030Z,2.91
2023-01-17T00:45:26.890Z,2.93
2023-01-17T00:46:28.856Z,2.98
2023-01-17T00:47:30.777Z,2.63
2023-01-17T00:48:32.989Z,3.01
2023-01-17T00:49:34.844Z,2.85
2023-01-17T00:50:38.114Z,0.25
2023-01-17T00:51:40.124Z,2.93
2023-01-17T00:52:41.915Z,2.89
2023-01-17T00:53:43.878Z,2.81
2023-01-17T00:54:45.840Z,2.91
2023-01-17T00:55:47.845Z,2.96
2023-01-17T00:56:50.579Z,2.69
2023-01-17T00:57:52.523Z,3.02
2023-01-17T00:58:54.630Z,2.38
2023-01-17T00:59:56.763Z,3.02
2023-01-17T01:00:58.959Z,2.70
2023-01-17T01:02:01.268Z,2.86
2023-01-17T01:03:09.257Z,2.89
2023-01-17T01:04:11.134Z,0.63
2023-01-17T01:05:13.811Z,2.84
2023-01-17T01:06:15.635Z,3.07
2023-01-17T01:07:17.566Z,2.93
2023-01-17T01:08:28.250Z,3.12
2023-01-17T01:09:30.197Z,3.15
2023-01-17T01:10:33.663Z,2.93
2023-01-17T01:11:35.783Z,3.20
2023-01-17T01:12:37.644Z,3.17
2023-01-17T01:13:39.408Z,3.18
2023-01-17T01:14:41.224Z,3.04
2023-01-17T01:15:43.139Z,3.06
2023-01-17T01:16:45.085Z,2.95
2023-01-17T01:17:47.129Z,3.17
2023-01-17T01:18:49.577Z,3.02
2023-01-17T01:19:51.429Z,3.01
2023-01-17T01:20:53.388Z,2.98
2023-01-17T01:21:55.142Z,2.79
2023-01-17T01:22:57.143Z,3.06
2023-01-17T01:23:59.036Z,2.96
2023-01-17T01:25:00.945Z,1.77
2023-01-17T01:26:04.064Z,3.07
2023-01-17T01:27:06.135Z,2.97
2023-01-17T01:28:12.856Z,3.05
2023-01-17T01:29:14.913Z,2.83
2023-01-17T01:30:17.105Z,3.10
2023-01-17T01:31:19.020Z,1.80
2023-01-17T01:32:20.974Z,2.98
2023-01-17T01:33:22.988Z,2.50
2023-01-17T01:34:24.877Z,2.10
2023-01-17T01:35:27.129Z,3.01
2023-01-17T01:36:29.036Z,2.47
2023-01-17T01:37:32.196Z,2.77
2023-01-17T01:38:34.138Z,3.00
2023-01-17T01:39:35.915Z,2.95
2023-01-17T01:40:46.578Z,1.97
2023-01-17T01:41:48.565Z,2.71
2023-01-17T01:42:58.284Z,1.93
2023-01-17T01:44:00.436Z,2.79
2023-01-17T01:45:16.713Z,2.15
2023-01-17T01:46:21.282Z,2.43
2023-01-17T01:47:31.186Z,3.07
2023-01-17T01:48:38.203Z,3.02
2023-01-17T01:49:40.568Z,3.04
2023-01-17T01:50:42.435Z,3.05
2023-01-17T01:51:50.737Z,3.04
2023-01-17T01:52:57.125Z,2.62
2023-01-17T01:54:07.703Z,3.13
2023-01-17T01:55:29.403Z,3.11
2023-01-17T01:56:32.264Z,3.05
2023-01-17T01:57:49.293Z,3.08
2023-01-17T01:58:53.221Z,3.04
2023-01-17T02:00:04.672Z,2.93
2023-01-17T02:01:08.629Z,3.11
2023-01-17T02:02:11.207Z,3.14
2023-01-17T02:03:26.010Z,3.14
2023-01-17T02:04:28.982Z,3.17
2023-01-17T02:05:32.186Z,3.16
2023-01-17T02:06:47.664Z,3.19
2023-01-17T02:07:57.597Z,2.97
2023-01-17T02:09:04.480Z,3.14
2023-01-17T02:10:06.373Z,3.07
2023-01-17T02:11:08.197Z,3.25
2023-01-17T02:12:10.596Z,2.90
2023-01-17T02:13:15.600Z,3.13
2023-01-17T02:14:22.568Z,2.65
2023-01-17T02:15:36.705Z,3.23
2023-01-17T02:17:06.560Z,3.21
2023-01-17T02:18:29.705Z,3.22
2023-01-17T02:19:59.603Z,3.22
2023-01-17T02:21:10.626Z,3.25
2023-01-17T02:22:33.501Z,3.27
2023-01-17T02:23:52.505Z,3.29
2023-01-17T02:25:13.051Z,3.31
2023-01-17T02:26:31.816Z,3.07
2023-01-17T02:27:52.362Z,3.30
2023-01-17T02:29:36.701Z,2.77
2023-01-17T02:30:54.248Z,3.31
2023-01-17T02:32:15.269Z,3.32
2023-01-17T02:35:29.296Z,1.91
2023-01-17T02:36:38.178Z,3.22
2023-01-17T02:38:10.727Z,3.05
2023-01-17T02:39:44.078Z,2.94
2023-01-17T02:40:49.807Z,2.97
2023-01-17T02:42:02.676Z,3.15
2023-01-17T02:43:13.684Z,3.38
2023-01-17T02:44:20.572Z,3.40
2023-01-17T02:45:22.680Z,3.01
2023-01-17T02:46:24.790Z,2.41
2023-01-17T02:47:29.564Z,3.50
2023-01-17T02:48:34.495Z,2.92
2023-01-17T02:49:36.520Z,3.27
2023-01-17T02:50:57.435Z,2.40
2023-01-17T02:52:12.419Z,3.43
2023-01-17T02:53:30.202Z,3.47
2023-01-17T02:54:50.698Z,3.46
2023-01-17T02:56:06.246Z,2.65
2023-01-17T02:57:26.139Z,2.33
2023-01-17T02:58:40.296Z,2.26
2023-01-17T03:00:00.467Z,3.34
2023-01-17T03:01:17.737Z,2.27
2023-01-17T03:02:38.562Z,3.06
2023-01-17T03:03:49.526Z,3.30
2023-01-17T03:05:12.171Z,3.33
2023-01-17T03:06:32.613Z,3.32
2023-01-17T03:07:35.116Z,3.23
2023-01-17T03:08:38.917Z,3.33
2023-01-17T03:09:41.237Z,2.75
2023-01-17T03:10:44.708Z,3.32
2023-01-17T03:11:46.736Z,3.31
2023-01-17T03:12:48.509Z,3.02
2023-01-17T03:13:55.517Z,3.22
2023-01-17T03:14:57.678Z,3.29
2023-01-17T03:16:00.348Z,3.32
2023-01-17T03:17:02.499Z,3.13
2023-01-17T03:18:08.489Z,3.34
2023-01-17T03:19:10.538Z,3.37
2023-01-17T03:20:12.505Z,3.28
2023-01-17T03:21:14.396Z,3.41
2023-01-17T03:22:16.397Z,3.41
2023-01-17T03:23:18.354Z,3.30
2023-01-17T03:24:20.563Z,3.43
2023-01-17T03:25:22.562Z,3.03
2023-01-17T03:26:24.540Z,2.58
2023-01-17T03:27:26.380Z,2.30
2023-01-17T03:28:28.377Z,3.10
2023-01-17T03:29:30.295Z,3.29
2023-01-17T03:30:32.448Z,3.30
2023-01-17T03:31:34.422Z,3.14
2023-01-17T03:32:36.130Z,3.23
2023-01-17T03:33:37.958Z,3.36
2023-01-17T03:34:39.851Z,3.30
2023-01-17T03:35:41.840Z,3.17
2023-01-17T03:36:44.036Z,3.37
2023-01-17T03:37:45.918Z,2.81
2023-01-17T03:38:47.715Z,3.37
2023-01-17T03:39:49.664Z,3.31
2023-01-17T03:40:51.578Z,3.46
2023-01-17T03:41:53.599Z,3.24
2023-01-17T03:42:55.650Z,3.43
2023-01-17T03:43:57.636Z,3.39
2023-01-17T03:44:59.535Z,2.96
2023-01-17T03:46:06.505Z,3.28
2023-01-17T03:47:08.557Z,2.92
2023-01-17T03:48:10.340Z,3.43
2023-01-17T03:49:12.081Z,2.81
2023-01-17T03:50:14.046Z,3.43
2023-01-17T03:51:16.382Z,3.21
2023-01-17T03:52:18.405Z,3.40
2023-01-17T03:53:20.179Z,3.08
2023-01-17T03:54:22.216Z,3.03
2023-01-17T03:55:24.295Z,3.36
2023-01-17T03:56:26.237Z,3.51
2023-01-17T03:57:28.674Z,3.58
2023-01-17T03:58:30.476Z,3.42
2023-01-17T03:59:32.341Z,3.38
2023-01-17T04:00:34.460Z,3.54
2023-01-17T04:01:36.486Z,3.40
2023-01-17T04:02:38.430Z,3.47
2023-01-17T04:03:40.435Z,3.48
2023-01-17T04:04:42.206Z,3.31
2023-01-17T04:05:44.019Z,3.21
2023-01-17T04:06:45.885Z,3.56
2023-01-17T04:07:47.756Z,3.56
2023-01-17T04:08:49.814Z,3.62
2023-01-17T04:09:51.628Z,3.62
2023-01-17T04:10:53.743Z,3.41
2023-01-17T04:11:55.637Z,3.65
2023-01-17T04:12:57.517Z,3.53
2023-01-17T04:13:59.304Z,3.57
2023-01-17T04:15:01.100Z,2.77
2023-01-17T04:16:03.129Z,2.49
2023-01-17T04:17:05.225Z,3.12
2023-01-17T04:18:07.298Z,2.82
2023-01-17T04:19:13.761Z,3.55
2023-01-17T04:20:39.116Z,3.40
2023-01-17T04:21:40.979Z,3.60
2023-01-17T04:22:42.936Z,3.37
2023-01-17T04:23:44.756Z,3.30
2023-01-17T04:24:46.550Z,3.39
2023-01-17T04:25:48.511Z,3.38
2023-01-17T04:26:50.478Z,3.47
2023-01-17T04:27:54.081Z,3.64
2023-01-17T04:28:56.078Z,3.05
2023-01-17T04:29:58.039Z,3.56
2023-01-17T04:31:00.722Z,3.34
2023-01-17T04:32:02.654Z,3.52
2023-01-17T04:33:05.428Z,3.59
2023-01-17T04:34:07.680Z,3.52
2023-01-17T04:35:10.304Z,3.22
2023-01-17T04:36:12.255Z,3.53
2023-01-17T04:37:14.018Z,3.29
2023-01-17T04:38:15.815Z,3.15
2023-01-17T04:39:17.716Z,3.43
2023-01-17T04:40:19.868Z,3.42
2023-01-17T04:41:21.772Z,3.56
2023-01-17T04:42:23.775Z,3.57
2023-01-17T04:43:25.638Z,3.57
2023-01-17T04:44:27.469Z,3.48
2023-01-17T04:45:29.293Z,3.43
2023-01-17T04:46:31.430Z,3.57
2023-01-17T04:47:35.221Z,3.55
2023-01-17T04:48:37.519Z,3.58
2023-01-17T04:49:39.530Z,3.51
2023-01-17T04:50:41.657Z,2.70
2023-01-17T04:51:43.623Z,3.67
2023-01-17T04:52:45.625Z,3.52
2023-01-17T04:53:47.500Z,3.68
2023-01-17T04:54:49.218Z,3.29
2023-01-17T04:55:51.097Z,3.61
2023-01-17T04:56:53.095Z,3.67
2023-01-17T04:57:54.953Z,3.47
2023-01-17T04:58:58.062Z,3.70
2023-01-17T05:00:00.170Z,3.60
2023-01-17T05:01:07.076Z,3.69
2023-01-17T05:02:09.569Z,3.44
2023-01-17T05:03:11.619Z,3.62
2023-01-17T05:04:13.662Z,3.58
2023-01-17T05:05:15.669Z,3.67
2023-01-17T05:06:17.545Z,3.64
2023-01-17T05:07:19.382Z,3.60
2023-01-17T05:08:21.259Z,3.40
2023-01-17T05:09:23.545Z,3.31
2023-01-17T05:10:26.180Z,3.19
2023-01-17T05:11:28.119Z,3.43
2023-01-17T05:12:30.165Z,3.28
2023-01-17T05:13:32.247Z,3.43
2023-01-17T05:14:34.210Z,3.31
2023-01-17T05:15:36.830Z,3.29
2023-01-17T05:16:38.917Z,3.41
2023-01-17T05:17:40.979Z,3.36
2023-01-17T05:18:43.058Z,3.29
2023-01-17T05:19:45.265Z,3.49
2023-01-17T05:20:47.234Z,3.31
2023-01-17T05:21:49.036Z,3.26
2023-01-17T05:22:55.780Z,3.59
2023-01-17T05:23:57.801Z,2.69
2023-01-17T05:24:59.717Z,3.39
2023-01-17T05:26:01.688Z,2.85
2023-01-17T05:27:03.795Z,3.36
2023-01-17T05:28:05.778Z,3.28
2023-01-17T05:29:07.824Z,3.46
2023-01-17T05:30:10.603Z,2.51
2023-01-17T05:31:12.830Z,3.48
2023-01-17T05:32:14.802Z,3.19
2023-01-17T05:33:16.679Z,2.84
2023-01-17T05:34:18.492Z,3.40
2023-01-17T05:35:25.775Z,3.46
2023-01-17T05:36:27.754Z,3.50
2023-01-17T05:37:30.119Z,3.39
2023-01-17T05:38:31.957Z,3.32
2023-01-17T05:39:33.732Z,3.36
2023-01-17T05:40:36.027Z,3.51
2023-01-17T05:41:38.198Z,3.53
2023-01-17T05:42:47.895Z,2.12
2023-01-17T05:43:49.816Z,2.91
2023-01-17T05:44:51.575Z,3.46
2023-01-17T05:45:53.427Z,2.01
2023-01-17T05:46:55.849Z,3.25
2023-01-17T05:47:58.080Z,2.83
2023-01-17T05:48:59.997Z,3.34
2023-01-17T05:50:01.926Z,3.33
2023-01-17T05:51:04.043Z,3.21
2023-01-17T05:52:06.188Z,3.32
2023-01-17T05:53:10.490Z,3.04
2023-01-17T05:54:12.356Z,3.24
2023-01-17T05:55:14.350Z,2.95
2023-01-17T05:56:16.182Z,3.12
2023-01-17T05:57:18.199Z,2.91
2023-01-17T05:58:22.520Z,2.94
2023-01-17T05:59:36.451Z,3.00
2023-01-17T06:00:39.000Z,3.13
2023-01-17T06:01:41.258Z,2.99
2023-01-17T06:02:43.690Z,3.19
2023-01-17T06:03:45.803Z,3.18
2023-01-17T06:04:47.997Z,3.12
2023-01-17T06:05:49.947Z,2.87
2023-01-17T06:06:52.415Z,3.23
2023-01-17T06:07:54.376Z,3.28
2023-01-17T06:08:56.316Z,3.18
2023-01-17T06:09:58.296Z,3.34
2023-01-17T06:11:00.109Z,2.86
2023-01-17T06:12:02.219Z,2.63
2023-01-17T06:13:13.225Z,3.25
2023-01-17T06:14:15.477Z,3.10
2023-01-17T06:15:18.507Z,2.95
2023-01-17T06:16:20.589Z,3.07
2023-01-17T06:17:22.551Z,2.64
2023-01-17T06:18:24.666Z,3.20
2023-01-17T06:19:26.677Z,2.87
2023-01-17T06:20:28.646Z,2.71
2023-01-17T06:21:30.536Z,3.14
2023-01-17T06:22:33.036Z,3.28
2023-01-17T06:23:34.876Z,3.34
2023-01-17T06:24:36.897Z,3.51
2023-01-17T06:25:46.475Z,3.34
2023-01-17T06:26:48.399Z,2.43
2023-01-17T06:27:50.362Z,3.30
2023-01-17T06:28:52.656Z,3.39
2023-01-17T06:29:54.449Z,3.40
2023-01-17T06:30:56.474Z,2.16
2023-01-17T06:32:00.273Z,3.58
2023-01-17T06:33:04.124Z,3.52
2023-01-17T06:34:05.939Z,3.22
2023-01-17T06:35:08.163Z,3.64
2023-01-17T06:36:10.105Z,3.72
2023-01-17T06:37:12.017Z,3.78
2023-01-17T06:38:13.921Z,3.69
2023-01-17T06:39:15.742Z,3.76
2023-01-17T06:40:18.182Z,3.72
2023-01-17T06:41:19.958Z,3.62
2023-01-17T06:42:21.824Z,3.86
2023-01-17T06:43:23.886Z,3.90
2023-01-17T06:44:26.656Z,3.86
2023-01-17T06:45:29.403Z,3.82
2023-01-17T06:46:31.510Z,3.45
2023-01-17T06:47:38.503Z,3.57
2023-01-17T06:48:40.579Z,3.83
2023-01-17T06:49:42.761Z,3.92
2023-01-17T06:50:44.844Z,3.96
2023-01-17T06:51:46.698Z,2.62
2023-01-17T06:52:56.885Z,4.02
2023-01-17T06:53:58.825Z,4.00
2023-01-17T06:55:00.548Z,3.77
2023-01-17T06:56:02.519Z,3.04
2023-01-17T06:57:04.279Z,4.14
2023-01-17T06:58:06.025Z,3.99
2023-01-17T06:59:08.021Z,4.14
2023-01-17T07:00:10.528Z,2.97
2023-01-17T07:01:13.092Z,3.90
2023-01-17T07:02:15.111Z,4.00
2023-01-17T07:03:23.416Z,4.15
2023-01-17T07:04:25.135Z,3.58
2023-01-17T07:05:27.194Z,2.98
2023-01-17T07:06:29.070Z,3.94
2023-01-17T07:07:33.841Z,3.66
2023-01-17T07:08:36.484Z,2.36
2023-01-17T07:09:38.214Z,4.06
2023-01-17T07:10:39.924Z,4.31
2023-01-17T07:11:41.663Z,4.22
2023-01-17T07:12:43.426Z,3.33
2023-01-17T07:13:45.152Z,4.15
2023-01-17T07:14:46.999Z,4.68
2023-01-17T07:15:48.797Z,4.53
2023-01-17T07:16:50.815Z,4.61
2023-01-17T07:17:52.469Z,4.95
2023-01-17T07:18:54.193Z,4.88
2023-01-17T07:19:55.887Z,4.76
2023-01-17T07:20:57.614Z,4.98
2023-01-17T07:21:59.337Z,4.85
2023-01-17T07:23:01.045Z,5.13
2023-01-17T07:24:02.731Z,4.98
2023-01-17T07:25:05.056Z,5.14
2023-01-17T07:26:07.032Z,5.26
2023-01-17T07:27:08.761Z,5.42
2023-01-17T07:28:10.402Z,5.25
2023-01-17T07:29:12.062Z,5.44
2023-01-17T07:30:14.308Z,5.61
2023-01-17T07:31:16.099Z,5.64
2023-01-17T07:32:17.865Z,5.67
2023-01-17T07:33:19.944Z,4.78
2023-01-17T07:34:21.668Z,5.81
2023-01-17T07:35:24.594Z,5.87
2023-01-17T07:36:26.276Z,5.58
2023-01-17T07:37:28.026Z,5.91
2023-01-17T07:38:29.735Z,5.94
2023-01-17T07:39:31.417Z,3.32
2023-01-17T07:40:41.462Z,5.82
2023-01-17T07:41:43.720Z,5.81
2023-01-17T07:42:46.057Z,6.13
2023-01-17T07:43:47.771Z,6.12
2023-01-17T07:44:49.529Z,6.08
2023-01-17T07:45:51.320Z,6.38
2023-01-17T07:46:55.029Z,6.42
2023-01-17T07:47:59.533Z,6.29
2023-01-17T07:49:01.315Z,6.45
2023-01-17T07:50:04.174Z,5.56
2023-01-17T07:51:06.039Z,6.24
2023-01-17T07:52:07.966Z,4.64
2023-01-17T07:53:09.762Z,6.68
2023-01-17T07:54:11.753Z,6.75
2023-01-17T07:55:13.542Z,6.77
2023-01-17T07:56:15.258Z,6.77
2023-01-17T07:57:16.947Z,6.53
2023-01-17T07:58:18.945Z,6.86
2023-01-17T07:59:20.700Z,6.94
2023-01-17T08:00:22.768Z,6.91
2023-01-17T08:01:24.599Z,6.94
2023-01-17T08:02:26.461Z,6.94
2023-01-17T08:03:28.294Z,6.99
2023-01-17T08:04:30.073Z,6.80
2023-01-17T08:05:31.888Z,6.84
2023-01-17T08:06:33.590Z,7.01
2023-01-17T08:07:35.522Z,6.37
2023-01-17T08:08:37.166Z,6.74
2023-01-17T08:09:38.894Z,6.98
2023-01-17T08:10:40.635Z,6.90
2023-01-17T08:11:42.291Z,6.89
2023-01-17T08:12:45.910Z,7.10
2023-01-17T08:13:47.827Z,6.95
2023-01-17T08:14:49.577Z,7.24
2023-01-17T08:15:51.978Z,6.83
2023-01-17T08:16:53.831Z,7.26
2023-01-17T08:17:55.545Z,6.71
2023-01-17T08:18:57.500Z,7.09
2023-01-17T08:19:59.211Z,6.80
2023-01-17T08:21:00.927Z,6.98
2023-01-17T08:22:02.654Z,7.46
2023-01-17T08:23:04.399Z,7.17
2023-01-17T08:24:06.496Z,6.79
2023-01-17T08:25:08.764Z,7.75
2023-01-17T08:26:10.523Z,7.00
2023-01-17T08:27:12.211Z,7.93
2023-01-17T08:28:13.934Z,8.02
2023-01-17T08:29:15.694Z,8.07
2023-01-17T08:30:18.169Z,8.22
2023-01-17T08:31:19.973Z,8.26
2023-01-17T08:32:21.823Z,8.42
2023-01-17T08:33:23.579Z,8.45
2023-01-17T08:34:25.308Z,8.26
2023-01-17T08:35:27.099Z,8.42
2023-01-17T08:36:28.754Z,8.40
2023-01-17T08:37:30.444Z,8.49
2023-01-17T08:38:32.120Z,8.46
2023-01-17T08:39:33.944Z,8.45
2023-01-17T08:40:35.599Z,8.27
2023-01-17T08:41:37.315Z,8.55
2023-01-17T08:42:39.081Z,8.60
2023-01-17T08:43:40.797Z,8.66
2023-01-17T08:44:42.501Z,8.74
2023-01-17T08:45:48.708Z,8.40
2023-01-17T08:46:50.495Z,8.94
2023-01-17T08:47:52.917Z,9.06
2023-01-17T08:48:55.632Z,8.77
2023-01-17T08:49:57.573Z,9.09
2023-01-17T08:51:02.668Z,9.24
2023-01-17T08:52:04.534Z,8.41
2023-01-17T08:53:06.380Z,9.61
2023-01-17T08:54:08.478Z,9.79
2023-01-17T08:55:10.477Z,8.87
2023-01-17T08:56:12.145Z,9.76
2023-01-17T08:57:13.819Z,9.59
2023-01-17T08:58:15.529Z,9.77
2023-01-17T08:59:17.314Z,9.70
2023-01-17T09:00:19.417Z,9.36
2023-01-17T09:01:21.530Z,9.92
2023-01-17T09:02:23.335Z,9.78
2023-01-17T09:03:25.168Z,9.68
2023-01-17T09:04:26.934Z,9.87
2023-01-17T09:05:28.775Z,10.09
2023-01-17T09:06:30.425Z,10.10
2023-01-17T09:07:32.176Z,10.10
2023-01-17T09:08:34.674Z,10.10
2023-01-17T09:09:36.434Z,10.06
2023-01-17T09:10:38.084Z,10.21
2023-01-17T09:11:39.758Z,10.17
2023-01-17T09:12:41.448Z,9.99
2023-01-17T09:13:43.288Z,9.89
2023-01-17T09:14:44.957Z,10.17
2023-01-17T09:15:46.659Z,10.44
2023-01-17T09:16:48.487Z,10.46
2023-01-17T09:17:50.230Z,10.37
2023-01-17T09:18:56.817Z,10.73
2023-01-17T09:19:58.555Z,10.78
2023-01-17T09:21:09.403Z,10.63
2023-01-17T09:22:12.112Z,10.64
2023-01-17T09:23:13.824Z,10.64
2023-01-17T09:24:15.520Z,10.86
2023-01-17T09:25:17.299Z,10.39
2023-01-17T09:26:18.906Z,10.90
2023-01-17T09:27:20.634Z,9.48
2023-01-17T09:28:22.815Z,10.79
2023-01-17T09:29:24.581Z,10.84
2023-01-17T09:30:26.432Z,10.82
2023-01-17T09:31:28.669Z,9.88
2023-01-17T09:32:30.347Z,10.35
2023-01-17T09:33:32.077Z,10.83
2023-01-17T09:34:33.829Z,10.75
2023-01-17T09:35:35.475Z,10.82
2023-01-17T09:36:37.183Z,10.68
2023-01-17T09:37:38.868Z,10.47
2023-01-17T09:38:40.568Z,10.42
2023-01-17T09:39:42.240Z,10.15
2023-01-17T09:40:48.001Z,10.41
2023-01-17T09:42:00.139Z,10.81
2023-01-17T09:43:11.908Z,10.57
2023-01-17T09:44:13.600Z,10.89
2023-01-17T09:45:19.380Z,9.92
2023-01-17T09:46:29.629Z,9.87
2023-01-17T09:47:53.751Z,10.89
2023-01-17T09:49:23.761Z,10.55
2023-01-17T09:50:33.306Z,10.01
2023-01-17T09:51:36.133Z,10.97
2023-01-17T09:52:38.010Z,10.99
2023-01-17T09:53:41.471Z,10.79
2023-01-17T09:54:45.980Z,9.95
2023-01-17T09:55:59.301Z,9.69
2023-01-17T09:57:15.435Z,11.03
2023-01-17T09:58:25.441Z,11.03
2023-01-17T09:59:45.404Z,11.04
2023-01-17T10:01:24.654Z,10.99
2023-01-17T10:02:38.592Z,9.99
2023-01-17T10:03:40.403Z,10.94
2023-01-17T10:04:52.193Z,10.94
2023-01-17T10:06:03.545Z,10.79
2023-01-17T10:07:23.357Z,10.96
2023-01-17T10:08:52.514Z,10.94
2023-01-17T10:10:28.587Z,10.99
2023-01-17T10:11:45.388Z,9.99
2023-01-17T10:12:56.421Z,10.95
2023-01-17T10:14:07.181Z,10.92
2023-01-17T10:15:17.933Z,10.06
2023-01-17T10:16:24.853Z,10.90
2023-01-17T10:17:55.875Z,10.85
2023-01-17T10:19:12.729Z,11.04
2023-01-17T10:20:14.704Z,11.04
2023-01-17T10:21:42.719Z,11.09
2023-01-17T10:23:25.245Z,11.05
2023-01-17T10:24:51.577Z,11.05
2023-01-17T10:25:56.423Z,11.00
2023-01-17T10:27:02.003Z,11.00
2023-01-17T10:28:20.294Z,10.84
2023-01-17T10:29:25.899Z,11.09
2023-01-17T10:30:36.631Z,11.07
2023-01-17T10:31:51.559Z,11.00
2023-01-17T10:32:54.754Z,10.93
2023-01-17T10:34:00.609Z,11.03
2023-01-17T10:35:16.169Z,10.79
2023-01-17T10:36:22.451Z,10.59
2023-01-17T10:37:58.648Z,11.15
2023-01-17T10:39:14.720Z,11.14
2023-01-17T10:40:44.787Z,11.12
2023-01-17T10:41:53.199Z,11.17
2023-01-17T10:43:15.749Z,11.20
2023-01-17T10:44:44.469Z,11.14
2023-01-17T10:45:53.900Z,11.28
2023-01-17T10:47:02.392Z,11.32
2023-01-17T10:48:29.684Z,11.28
2023-01-17T10:49:31.488Z,11.40
2023-01-17T10:50:48.458Z,11.43
2023-01-17T10:51:59.055Z,11.48
2023-01-17T10:53:10.096Z,11.41
2023-01-17T10:54:26.000Z,11.56
2023-01-17T10:55:51.799Z,11.59
2023-01-17T10:56:53.648Z,11.51
2023-01-17T10:57:56.539Z,11.51
2023-01-17T10:59:30.374Z,11.67
2023-01-17T11:00:54.979Z,11.63
2023-01-17T11:01:57.739Z,11.06
2023-01-17T11:03:00.385Z,11.29
2023-01-17T11:04:02.559Z,11.42
2023-01-17T11:05:18.636Z,11.77
2023-01-17T11:06:25.713Z,11.10
2023-01-17T11:07:29.317Z,11.80
2023-01-17T11:08:58.927Z,11.58
2023-01-17T11:10:00.685Z,11.51
2023-01-17T11:11:04.264Z,11.75
2023-01-17T11:12:13.165Z,11.74
2023-01-17T11:13:36.157Z,11.72
2023-01-17T11:14:37.975Z,11.72
2023-01-17T11:15:39.761Z,11.63
2023-01-17T11:16:43.022Z,11.70
2023-01-17T11:17:52.276Z,11.48
2023-01-17T11:19:14.770Z,11.71
2023-01-17T11:20:38.429Z,11.56
2023-01-17T11:21:49.236Z,11.66
2023-01-17T11:23:22.876Z,11.69
2023-01-17T11:24:37.916Z,11.41
2023-01-17T11:25:40.988Z,11.42
2023-01-17T11:26:48.802Z,11.68
2023-01-17T11:28:21.149Z,11.67
2023-01-17T11:29:28.755Z,11.72
2023-01-17T11:30:30.699Z,11.71
2023-01-17T11:31:32.402Z,11.06
2023-01-17T11:32:34.589Z,10.76
2023-01-17T11:33:37.569Z,11.73
2023-01-17T11:34:39.324Z,11.73
2023-01-17T11:35:45.330Z,11.75
2023-01-17T11:36:47.151Z,11.78
2023-01-17T11:38:08.520Z,11.44
2023-01-17T11:39:18.985Z,11.80
2023-01-17T11:40:36.179Z,11.63
2023-01-17T11:41:40.871Z,11.81
2023-01-17T11:42:42.701Z,11.82
2023-01-17T11:43:56.567Z,11.76
2023-01-17T11:45:23.997Z,10.76
2023-01-17T11:46:26.312Z,9.18
2023-01-17T11:47:28.107Z,11.91
2023-01-17T11:48:35.479Z,11.93
2023-01-17T11:49:37.758Z,11.76
2023-01-17T11:51:10.541Z,11.98
2023-01-17T11:52:33.648Z,11.87
2023-01-17T11:53:38.464Z,11.99
2023-01-17T11:54:40.582Z,11.78
2023-01-17T11:56:06.693Z,11.97
2023-01-17T11:57:26.051Z,11.96
2023-01-17T11:58:29.144Z,11.96
2023-01-17T11:59:36.792Z,11.46
2023-01-17T12:00:47.928Z,11.87
2023-01-17T12:01:49.565Z,11.99
2023-01-17T12:03:06.426Z,11.07
2023-01-17T12:04:29.610Z,11.98
2023-01-17T12:05:47.558Z,11.97
2023-01-17T12:07:39.765Z,11.97
2023-01-17T12:08:52.624Z,11.44
2023-01-17T12:10:05.220Z,11.97
2023-01-17T12:11:22.885Z,11.01
2023-01-17T12:12:55.661Z,11.86
2023-01-17T12:14:32.096Z,11.98
2023-01-17T12:15:52.540Z,11.97
2023-01-17T12:17:22.647Z,11.04
2023-01-17T12:18:46.323Z,12.01
2023-01-17T12:19:53.608Z,11.08
2023-01-17T12:21:00.873Z,11.98
2023-01-17T12:22:30.294Z,11.98
2023-01-17T12:24:02.940Z,11.82
2023-01-17T12:25:15.591Z,11.99
2023-01-17T12:26:40.234Z,11.77
2023-01-17T12:27:57.603Z,11.26
2023-01-17T12:29:20.239Z,12.02
2023-01-17T12:30:40.799Z,12.03
2023-01-17T12:32:21.001Z,12.04
2023-01-17T12:33:39.141Z,11.99
2023-01-17T12:35:05.182Z,11.91
2023-01-17T12:36:23.376Z,12.08
2023-01-17T12:37:37.663Z,11.97
2023-01-17T12:38:40.073Z,11.02
2023-01-17T12:39:48.794Z,11.89
2023-01-17T12:41:21.730Z,12.10
2023-01-17T12:42:29.713Z,11.31
2023-01-17T12:43:39.461Z,12.07
2023-01-17T12:44:59.687Z,11.15
2023-01-17T12:46:08.450Z,11.99
2023-01-17T12:47:11.576Z,12.13
2023-01-17T12:48:21.045Z,12.12
2023-01-17T12:49:53.701Z,12.23
2023-01-17T12:51:02.611Z,12.09
2023-01-17T12:52:45.235Z,12.28
2023-01-17T12:54:05.369Z,12.05
2023-01-17T12:55:14.573Z,12.03
2023-01-17T12:56:28.505Z,12.01
2023-01-17T12:57:38.523Z,11.48
2023-01-17T12:58:44.749Z,11.74
2023-01-17T12:59:50.885Z,12.21
2023-01-17T13:01:19.571Z,12.23
2023-01-17T13:02:29.008Z,12.23
2023-01-17T13:03:52.091Z,12.25
2023-01-17T13:04:58.770Z,12.25
2023-01-17T13:06:03.286Z,11.85
2023-01-17T13:07:20.426Z,12.29
2023-01-17T13:08:45.908Z,12.26
2023-01-17T13:10:07.765Z,12.23
2023-01-17T13:11:17.614Z,10.51
2023-01-17T13:12:21.445Z,11.96
2023-01-17T13:13:28.209Z,12.17
2023-01-17T13:14:30.005Z,12.16
2023-01-17T13:15:39.277Z,12.27
2023-01-17T13:16:53.138Z,12.29
2023-01-17T13:18:08.090Z,12.19
2023-01-17T13:19:41.795Z,11.32
2023-01-17T13:21:02.621Z,12.34
2023-01-17T13:22:11.849Z,12.34
2023-01-17T13:23:30.333Z,12.36
2023-01-17T13:25:02.815Z,11.32
2023-01-17T13:26:14.017Z,12.27
2023-01-17T13:27:25.934Z,12.02
2023-01-17T13:28:30.612Z,12.11
2023-01-17T13:29:54.848Z,11.56
2023-01-17T13:31:21.455Z,12.31
2023-01-17T13:32:52.092Z,12.10
2023-01-17T13:34:12.492Z,12.24
2023-01-17T13:35:20.070Z,12.19
2023-01-17T13:36:55.499Z,12.14
2023-01-17T13:38:25.825Z,12.15
2023-01-17T13:39:39.724Z,11.22
2023-01-17T13:40:54.670Z,11.13
2023-01-17T13:42:22.901Z,12.21
2023-01-17T13:43:35.855Z,12.20
2023-01-17T13:44:37.602Z,12.02
2023-01-17T13:45:39.842Z,12.10
2023-01-17T13:47:00.995Z,12.13
2023-01-17T13:48:14.589Z,11.10
2023-01-17T13:49:31.470Z,12.14
2023-01-17T13:50:38.973Z,10.95
2023-01-17T13:52:19.449Z,12.06
2023-01-17T13:53:36.247Z,12.02
2023-01-17T13:54:48.625Z,11.11
2023-01-17T13:55:51.537Z,12.06
2023-01-17T13:57:26.808Z,12.24
2023-01-17T13:58:50.198Z,12.27
2023-01-17T13:59:53.796Z,12.11
2023-01-17T14:00:56.290Z,12.12
2023-01-17T14:01:58.190Z,12.21
2023-01-17T14:02:59.980Z,11.39
2023-01-17T14:04:04.218Z,12.15
2023-01-17T14:05:11.909Z,12.13
2023-01-17T14:06:41.234Z,12.09
2023-01-17T14:08:22.116Z,12.08
2023-01-17T14:09:25.765Z,12.20
2023-01-17T14:10:30.927Z,12.30
2023-01-17T14:11:49.297Z,12.32
2023-01-17T14:12:51.379Z,11.90
2023-01-17T14:13:53.197Z,12.23
2023-01-17T14:14:56.519Z,12.06
2023-01-17T14:15:58.523Z,12.28
2023-01-17T14:17:20.107Z,11.88
2023-01-17T14:18:40.076Z,12.25
2023-01-17T14:19:53.280Z,12.48
2023-01-17T14:21:07.134Z,12.42
2023-01-17T14:22:20.904Z,12.49
2023-01-17T14:23:30.751Z,12.59
2023-01-17T14:24:32.466Z,12.64
2023-01-17T14:25:41.661Z,12.63
2023-01-17T14:26:46.566Z,12.32
2023-01-17T14:27:55.468Z,11.49
2023-01-17T14:28:59.625Z,11.34
2023-01-17T14:30:03.612Z,11.29
2023-01-17T14:31:10.935Z,10.61
2023-01-17T14:32:26.050Z,10.91
2023-01-17T14:33:29.325Z,11.03
2023-01-17T14:34:31.262Z,11.01
2023-01-17T14:35:52.076Z,10.91
2023-01-17T14:37:04.626Z,10.77
2023-01-17T14:38:26.231Z,10.69
2023-01-17T14:39:28.088Z,10.55
2023-01-17T14:40:33.441Z,10.65
2023-01-17T14:41:35.262Z,10.52
2023-01-17T14:42:37.678Z,10.68
2023-01-17T14:43:43.166Z,10.65